createdAt,value
2022-08-09T00:01:01.572Z,9.37
2022-08-09T00:04:05.534Z,8.83
2022-08-09T00:06:22.881Z,7.37
2022-08-09T00:08:57.329Z,8.90
2022-08-09T00:11:27.842Z,8.83
2022-08-09T00:14:21.977Z,8.90
2022-08-09T00:17:06.115Z,9.77
2022-08-09T00:19:35.043Z,7.23
2022-08-09T00:22:06.053Z,10.70
2022-08-09T00:24:34.939Z,11.70
2022-08-09T00:27:08.858Z,10.13
2022-08-09T00:30:23.673Z,10.70
2022-08-09T00:32:34.660Z,7.93
2022-08-09T00:35:09.020Z,8.07
2022-08-09T00:37:40.660Z,8.23
2022-08-09T00:40:17.255Z,14.37
2022-08-09T00:44:15.219Z,10.10
2022-08-09T00:45:50.599Z,10.77
2022-08-09T00:48:23.638Z,13.00
2022-08-09T00:50:54.931Z,10.50
2022-08-09T00:53:24.676Z,7.60
2022-08-09T00:56:05.205Z,9.30
2022-08-09T00:58:39.171Z,9.60
2022-08-09T01:01:16.179Z,10.10
2022-08-09T01:03:56.809Z,10.10
2022-08-09T01:06:53.397Z,11.73
2022-08-09T01:09:26.311Z,8.53
2022-08-09T01:12:09.737Z,9.27
2022-08-09T01:14:48.070Z,10.97
2022-08-09T01:17:34.132Z,10.20
2022-08-09T01:20:05.944Z,8.63
2022-08-09T01:22:48.234Z,11.50
2022-08-09T01:25:28.435Z,10.47
2022-08-09T01:27:58.906Z,7.40
2022-08-09T01:30:46.691Z,10.17
2022-08-09T01:33:18.929Z,9.70
2022-08-09T01:35:52.214Z,9.13
2022-08-09T01:38:25.069Z,11.70
2022-08-09T01:41:03.002Z,9.50
2022-08-09T01:43:50.014Z,8.13
2022-08-09T01:46:25.163Z,9.87
2022-08-09T01:48:59.788Z,10.13
2022-08-09T01:51:32.641Z,11.97
2022-08-09T01:54:04.156Z,12.07
2022-08-09T01:56:34.730Z,10.87
2022-08-09T01:59:11.055Z,8.80
2022-08-09T02:01:59.989Z,8.83
2022-08-09T02:04:30.994Z,9.80
2022-08-09T02:07:18.085Z,7.87
2022-08-09T02:10:03.819Z,10.93
2022-08-09T02:12:34.973Z,8.20
2022-08-09T02:15:07.692Z,9.23
2022-08-09T02:18:01.005Z,12.93
2022-08-09T02:20:32.723Z,9.73
2022-08-09T02:23:08.749Z,8.20
2022-08-09T02:25:42.554Z,10.47
2022-08-09T02:28:24.229Z,14.17
2022-08-09T02:30:59.830Z,8.97
2022-08-09T02:33:38.170Z,9.50
2022-08-09T02:36:26.355Z,11.30
2022-08-09T02:38:57.146Z,10.17
2022-08-09T02:41:28.891Z,10.57
2022-08-09T02:44:06.616Z,9.23
2022-08-09T02:46:45.511Z,9.20
2022-08-09T02:49:20.806Z,9.87
2022-08-09T02:52:07.996Z,9.90
2022-08-09T02:54:54.027Z,10.33
2022-08-09T02:57:25.203Z,12.90
2022-08-09T03:00:20.707Z,8.00
2022-08-09T03:03:00.184Z,10.53
2022-08-09T03:05:30.289Z,7.93
2022-08-09T03:08:05.234Z,7.97
2022-08-09T03:10:34.807Z,9.50
2022-08-09T03:13:08.673Z,10.73
2022-08-09T03:16:06.826Z,10.70
2022-08-09T03:18:31.551Z,7.10
2022-08-09T03:21:01.873Z,14.20
2022-08-09T03:23:30.968Z,13.97
2022-08-09T03:26:04.803Z,9.53
2022-08-09T03:28:36.092Z,8.50
2022-08-09T03:31:10.397Z,7.07
2022-08-09T03:33:54.191Z,8.47
2022-08-09T03:36:27.709Z,10.27
2022-08-09T03:38:58.216Z,8.53
2022-08-09T03:41:44.789Z,8.73
2022-08-09T03:44:16.768Z,10.20
2022-08-09T03:46:48.168Z,9.50
2022-08-09T03:49:21.259Z,13.13
2022-08-09T03:52:00.109Z,13.40
2022-08-09T03:54:32.488Z,8.77
2022-08-09T03:57:18.440Z,7.93
2022-08-09T03:59:54.692Z,7.70
2022-08-09T04:02:27.934Z,6.50
2022-08-09T04:05:06.677Z,6.63
2022-08-09T04:07:56.524Z,9.37
2022-08-09T04:10:29.336Z,9.00
2022-08-09T04:13:04.031Z,6.90
2022-08-09T04:16:18.517Z,7.80
2022-08-09T04:18:22.173Z,5.73
2022-08-09T04:20:54.968Z,6.37
2022-08-09T04:23:25.948Z,8.13
2022-08-09T04:25:55.102Z,7.87
2022-08-09T04:28:33.507Z,8.20
2022-08-09T04:31:09.869Z,10.03
2022-08-09T04:33:47.432Z,7.17
2022-08-09T04:36:28.379Z,8.27
2022-08-09T04:38:59.330Z,5.70
2022-08-09T04:41:32.374Z,7.20
2022-08-09T04:44:07.081Z,7.40
2022-08-09T04:46:58.539Z,7.70
2022-08-09T04:49:53.577Z,6.63
2022-08-09T04:52:26.359Z,5.87
2022-08-09T04:55:06.493Z,4.43
2022-08-09T04:57:58.642Z,4.50
2022-08-09T05:00:26.267Z,4.70
2022-08-09T05:03:30.588Z,3.67
2022-08-09T05:06:04.575Z,2.70
2022-08-09T05:08:37.677Z,3.97
2022-08-09T05:11:07.838Z,3.87
2022-08-09T05:13:38.775Z,3.50
2022-08-09T05:16:08.770Z,4.47
2022-08-09T05:18:57.766Z,4.90
2022-08-09T05:21:30.152Z,3.00
2022-08-09T05:24:07.313Z,3.50
2022-08-09T05:26:45.451Z,3.90
2022-08-09T05:29:21.595Z,4.45
2022-08-09T05:31:57.137Z,4.82
2022-08-09T05:34:31.485Z,9.13
2022-08-09T05:37:05.915Z,5.35
2022-08-09T05:39:42.768Z,7.50
2022-08-09T05:42:17.540Z,3.08
2022-08-09T05:44:51.473Z,6.38
2022-08-09T05:47:21.775Z,4.28
2022-08-09T05:50:24.065Z,4.82
2022-08-09T05:52:53.787Z,5.20
2022-08-09T05:55:26.186Z,5.82
2022-08-09T05:57:58.883Z,4.97
2022-08-09T06:00:40.283Z,6.35
2022-08-09T06:03:10.600Z,7.78
2022-08-09T06:05:50.326Z,8.18
2022-08-09T06:08:32.041Z,4.95
2022-08-09T06:11:17.666Z,4.90
2022-08-09T06:13:48.236Z,3.60
2022-08-09T06:16:18.402Z,5.50
2022-08-09T06:18:50.900Z,4.20
2022-08-09T06:21:19.821Z,4.25
2022-08-09T06:23:57.581Z,4.40
2022-08-09T06:26:31.583Z,2.78
2022-08-09T06:29:05.242Z,4.40
2022-08-09T06:31:40.173Z,3.95
2022-08-09T06:34:23.671Z,3.60
2022-08-09T06:36:57.463Z,4.20
2022-08-09T06:39:49.320Z,3.35
2022-08-09T06:42:20.269Z,1.90
2022-08-09T06:44:54.253Z,1.65
2022-08-09T06:47:24.052Z,2.38
2022-08-09T06:50:13.950Z,1.77
2022-08-09T06:52:47.183Z,2.72
2022-08-09T06:55:16.966Z,2.63
2022-08-09T06:58:03.346Z,2.78
2022-08-09T07:00:49.541Z,2.55
2022-08-09T07:03:28.455Z,1.77
2022-08-09T07:06:04.228Z,2.72
2022-08-09T07:08:37.361Z,2.75
2022-08-09T07:11:08.607Z,3.22
2022-08-09T07:14:04.502Z,3.28
2022-08-09T07:16:43.460Z,4.45
2022-08-09T07:19:23.253Z,3.63
2022-08-09T07:21:57.819Z,1.80
2022-08-09T07:24:32.896Z,2.47
2022-08-09T07:27:26.857Z,3.85
2022-08-09T07:30:02.535Z,1.67
2022-08-09T07:32:33.474Z,4.82
2022-08-09T07:35:10.778Z,5.32
2022-08-09T07:37:44.574Z,2.80
2022-08-09T07:40:17.665Z,4.07
2022-08-09T07:42:55.699Z,2.70
2022-08-09T07:45:37.319Z,3.47
2022-08-09T07:48:07.518Z,4.78
2022-08-09T07:51:10.051Z,7.15
2022-08-09T07:54:05.982Z,4.47
2022-08-09T07:56:31.571Z,3.03
2022-08-09T07:59:00.393Z,2.88
2022-08-09T08:01:33.961Z,3.95
2022-08-09T08:04:03.346Z,5.28
2022-08-09T08:06:32.835Z,4.15
2022-08-09T08:09:07.790Z,4.60
2022-08-09T08:12:10.283Z,8.05
2022-08-09T08:14:41.803Z,5.68
2022-08-09T08:17:12.090Z,6.45
2022-08-09T08:19:53.526Z,2.80
2022-08-09T08:22:24.019Z,4.65
2022-08-09T08:24:57.431Z,10.65
2022-08-09T08:27:27.235Z,2.72
2022-08-09T08:30:11.056Z,4.85
2022-08-09T08:32:52.494Z,3.55
2022-08-09T08:35:22.799Z,2.28
2022-08-09T08:38:04.447Z,2.13
2022-08-09T08:40:40.149Z,3.25
2022-08-09T08:43:13.741Z,3.28
2022-08-09T08:45:51.638Z,3.13
2022-08-09T08:48:29.124Z,2.97
2022-08-09T08:51:00.211Z,2.45
2022-08-09T08:53:32.310Z,2.53
2022-08-09T08:56:06.458Z,3.13
2022-08-09T08:58:37.724Z,4.65
2022-08-09T09:01:09.182Z,4.55
2022-08-09T09:03:55.131Z,2.30
2022-08-09T09:06:25.775Z,4.00
2022-08-09T09:08:59.550Z,6.07
2022-08-09T09:11:30.772Z,5.43
2022-08-09T09:14:04.384Z,3.55
2022-08-09T09:16:35.221Z,5.60
2022-08-09T09:19:40.394Z,5.07
2022-08-09T09:22:04.970Z,2.97
2022-08-09T09:24:37.733Z,5.10
2022-08-09T09:27:08.733Z,6.07
2022-08-09T09:30:11.543Z,1.67
2022-08-09T09:32:35.107Z,4.43
2022-08-09T09:35:10.576Z,4.63
2022-08-09T09:37:42.234Z,4.13
2022-08-09T09:40:12.681Z,3.67
2022-08-09T09:42:45.991Z,3.60
2022-08-09T09:45:25.758Z,4.50
2022-08-09T09:47:59.790Z,4.90
2022-08-09T09:50:51.200Z,3.63
2022-08-09T09:53:34.389Z,5.90
2022-08-09T09:56:31.016Z,3.10
2022-08-09T09:59:01.557Z,3.70
2022-08-09T10:01:37.869Z,5.07
2022-08-09T10:04:22.997Z,3.07
2022-08-09T10:07:03.332Z,2.20
2022-08-09T10:09:54.756Z,6.10
2022-08-09T10:12:29.473Z,3.87
2022-08-09T10:15:17.439Z,4.10
2022-08-09T10:18:12.002Z,3.53
2022-08-09T10:20:44.932Z,7.63
2022-08-09T10:23:22.153Z,4.83
2022-08-09T10:26:07.297Z,2.10
2022-08-09T10:28:40.563Z,4.80
2022-08-09T10:32:27.666Z,3.70
2022-08-09T10:34:11.492Z,6.13
2022-08-09T10:36:50.235Z,5.93
2022-08-09T10:39:21.278Z,3.33
2022-08-09T10:41:49.972Z,5.13
2022-08-09T10:44:22.941Z,2.83
2022-08-09T10:48:14.273Z,4.17
2022-08-09T10:50:08.187Z,4.23
2022-08-09T10:53:10.314Z,2.37
2022-08-09T10:55:58.418Z,6.27
2022-08-09T10:58:34.959Z,3.90
2022-08-09T11:03:02.231Z,6.13
2022-08-09T11:04:28.069Z,2.67
2022-08-09T11:07:57.463Z,3.77
2022-08-09T11:10:18.418Z,2.93
2022-08-09T11:13:54.124Z,1.93
2022-08-09T11:16:37.348Z,2.27
2022-08-09T11:19:10.675Z,5.17
2022-08-09T11:22:16.659Z,3.43
2022-08-09T11:25:08.964Z,2.60
2022-08-09T11:28:05.168Z,5.57
2022-08-09T11:30:36.749Z,4.33
2022-08-09T11:33:10.549Z,3.60
2022-08-09T11:35:49.299Z,1.47
2022-08-09T11:38:22.032Z,3.37
2022-08-09T11:40:52.774Z,2.73
2022-08-09T11:43:42.028Z,2.60
2022-08-09T11:46:12.058Z,3.83
2022-08-09T11:48:51.434Z,3.40
2022-08-09T11:53:00.884Z,3.43
2022-08-09T11:54:27.927Z,2.27
2022-08-09T11:57:56.448Z,3.80
2022-08-09T12:00:27.430Z,3.03
2022-08-09T12:03:31.772Z,3.73
2022-08-09T12:05:56.150Z,4.20
2022-08-09T12:08:25.479Z,5.13
2022-08-09T12:10:56.380Z,7.17
2022-08-09T12:14:07.918Z,2.27
2022-08-09T12:16:37.733Z,4.43
2022-08-09T12:19:12.273Z,6.63
2022-08-09T12:21:48.547Z,3.87
2022-08-09T12:24:24.627Z,5.40
2022-08-09T12:29:14.884Z,4.13
2022-08-09T12:30:01.420Z,2.83
2022-08-09T12:32:34.263Z,3.23
2022-08-09T12:35:10.917Z,4.43
2022-08-09T12:37:50.600Z,4.60
2022-08-09T12:40:23.308Z,2.83
2022-08-09T12:42:54.139Z,2.40
2022-08-09T12:45:35.078Z,4.87
2022-08-09T12:48:19.834Z,4.33
2022-08-09T12:50:51.257Z,2.03
2022-08-09T12:53:35.040Z,3.47
2022-08-09T12:56:14.737Z,3.30
2022-08-09T12:59:10.090Z,3.07
2022-08-09T13:01:46.829Z,2.97
2022-08-09T13:04:27.490Z,2.70
2022-08-09T13:07:14.469Z,2.33
2022-08-09T13:09:55.845Z,3.90
2022-08-09T13:12:30.851Z,3.37
2022-08-09T13:15:08.366Z,7.23
2022-08-09T13:18:03.806Z,2.80
2022-08-09T13:20:37.205Z,6.03
2022-08-09T13:24:15.905Z,4.77
2022-08-09T13:25:57.738Z,3.70
2022-08-09T13:28:34.342Z,3.90
2022-08-09T13:32:13.912Z,4.37
2022-08-09T13:33:56.729Z,7.17
2022-08-09T13:36:40.489Z,6.57
2022-08-09T13:41:52.251Z,2.77
2022-08-09T13:42:03.530Z,6.73
2022-08-09T13:44:33.073Z,3.63
2022-08-09T13:47:29.791Z,2.00
2022-08-09T13:49:58.236Z,4.13
2022-08-09T13:52:30.536Z,7.97
2022-08-09T13:55:04.579Z,2.67
2022-08-09T13:57:39.885Z,1.93
2022-08-09T14:00:15.579Z,2.80
2022-08-09T14:03:03.486Z,3.10
2022-08-09T14:05:59.715Z,2.23
2022-08-09T14:08:23.999Z,2.80
2022-08-09T14:10:59.680Z,3.07
2022-08-09T14:14:22.002Z,3.57
2022-08-09T14:16:28.156Z,5.03
2022-08-09T14:18:59.373Z,6.03
2022-08-09T14:21:29.588Z,5.53
2022-08-09T14:24:10.030Z,4.03
2022-08-09T14:26:41.616Z,4.27
2022-08-09T14:29:25.538Z,5.40
2022-08-09T14:32:11.280Z,2.33
2022-08-09T14:34:42.099Z,4.13
2022-08-09T14:37:11.410Z,6.33
2022-08-09T14:39:46.374Z,2.50
2022-08-09T14:42:31.341Z,1.43
2022-08-09T14:46:46.674Z,3.63
2022-08-09T14:47:58.799Z,2.90
2022-08-09T14:50:34.210Z,1.50
2022-08-09T14:53:06.339Z,4.53
2022-08-09T14:55:42.121Z,2.97
2022-08-09T14:58:13.382Z,3.73
2022-08-09T15:00:48.641Z,2.50
2022-08-09T15:03:20.868Z,4.00
2022-08-09T15:05:55.541Z,4.20
2022-08-09T15:08:30.311Z,3.03
2022-08-09T15:11:01.285Z,5.07
2022-08-09T15:13:48.365Z,5.90
2022-08-09T15:16:23.850Z,3.63
2022-08-09T15:19:02.473Z,9.60
2022-08-09T15:21:54.617Z,4.30
2022-08-09T15:24:29.045Z,3.70
2022-08-09T15:26:57.909Z,2.00
2022-08-09T15:30:58.819Z,5.30
2022-08-09T15:32:29.072Z,3.30
2022-08-09T15:35:01.237Z,3.40
2022-08-09T15:37:56.238Z,3.23
2022-08-09T15:40:32.359Z,7.03
2022-08-09T15:43:02.824Z,2.13
2022-08-09T15:45:52.047Z,4.37
2022-08-09T15:48:29.035Z,6.27
2022-08-09T15:50:59.770Z,3.90
2022-08-09T15:54:04.484Z,1.87
2022-08-09T15:56:28.610Z,3.00
2022-08-09T15:59:00.254Z,3.03
2022-08-09T16:01:35.390Z,2.30
2022-08-09T16:04:05.007Z,2.60
2022-08-09T16:06:35.537Z,3.30
2022-08-09T16:09:07.143Z,2.30
2022-08-09T16:11:35.932Z,2.90
2022-08-09T16:14:07.975Z,6.50
2022-08-09T16:16:42.033Z,2.93
2022-08-09T16:19:15.025Z,5.27
2022-08-09T16:21:48.714Z,3.07
2022-08-09T16:24:33.218Z,3.97
2022-08-09T16:27:04.977Z,6.43
2022-08-09T16:29:37.969Z,2.80
2022-08-09T16:32:49.668Z,2.80
2022-08-09T16:35:11.286Z,3.87
2022-08-09T16:37:56.123Z,4.17
2022-08-09T16:40:40.299Z,2.37
2022-08-09T16:43:10.323Z,6.07
2022-08-09T16:45:44.508Z,6.43
2022-08-09T16:48:39.028Z,3.23
2022-08-09T16:51:08.223Z,2.97
2022-08-09T16:54:02.304Z,3.03
2022-08-09T16:56:31.579Z,3.33
2022-08-09T16:59:01.708Z,2.97
2022-08-09T17:01:36.038Z,2.93
2022-08-09T17:04:06.837Z,4.60
2022-08-09T17:07:03.993Z,3.00
2022-08-09T17:09:44.024Z,2.07
2022-08-09T17:12:14.540Z,1.83
2022-08-09T17:14:47.908Z,2.30
2022-08-09T17:17:26.643Z,2.93
2022-08-09T17:20:29.003Z,3.53
2022-08-09T17:22:51.768Z,6.50
2022-08-09T17:25:21.988Z,2.97
2022-08-09T17:27:53.892Z,2.23
2022-08-09T17:30:25.693Z,3.00
2022-08-09T17:33:00.570Z,1.97
2022-08-09T17:35:31.608Z,2.80
2022-08-09T17:38:12.481Z,2.93
2022-08-09T17:40:49.693Z,4.93
2022-08-09T17:43:34.726Z,5.23
2022-08-09T17:46:07.337Z,3.17
2022-08-09T17:48:38.953Z,2.17
2022-08-09T17:51:18.399Z,4.80
2022-08-09T17:53:51.889Z,3.10
2022-08-09T17:56:26.595Z,2.03
2022-08-09T17:58:59.484Z,3.37
2022-08-09T18:01:40.806Z,3.10
2022-08-09T18:04:19.617Z,4.30
2022-08-09T18:06:54.897Z,4.10
2022-08-09T18:09:35.771Z,5.37
2022-08-09T18:12:17.991Z,2.77
2022-08-09T18:14:55.073Z,3.07
2022-08-09T18:18:03.515Z,4.03
2022-08-09T18:20:54.576Z,3.50
2022-08-09T18:23:08.559Z,4.47
2022-08-09T18:25:57.777Z,5.50
2022-08-09T18:30:34.531Z,5.97
2022-08-09T18:31:24.809Z,5.77
2022-08-09T18:34:00.970Z,5.07
2022-08-09T18:36:31.884Z,4.23
2022-08-09T18:39:03.732Z,4.37
2022-08-09T18:41:34.334Z,4.13
2022-08-09T18:44:12.566Z,3.83
2022-08-09T18:46:47.375Z,8.13
2022-08-09T18:49:23.694Z,4.27
2022-08-09T18:51:55.035Z,6.63
2022-08-09T18:54:28.926Z,8.97
2022-08-09T18:57:05.601Z,5.13
2022-08-09T18:59:51.243Z,8.30
2022-08-09T19:02:21.097Z,14.37
2022-08-09T19:05:03.745Z,8.87
2022-08-09T19:07:59.180Z,6.63
2022-08-09T19:10:37.174Z,9.47
2022-08-09T19:13:20.388Z,9.17
2022-08-09T19:15:58.690Z,8.73
2022-08-09T19:18:34.216Z,13.03
2022-08-09T19:21:09.117Z,9.37
2022-08-09T19:24:32.258Z,6.60
2022-08-09T19:26:31.537Z,11.37
2022-08-09T19:29:03.218Z,18.57
2022-08-09T19:31:45.697Z,15.13
2022-08-09T19:34:21.621Z,12.77
2022-08-09T19:36:52.716Z,12.37
2022-08-09T19:39:43.196Z,15.97
2022-08-09T19:42:14.448Z,8.67
2022-08-09T19:44:44.678Z,23.23
2022-08-09T19:47:23.249Z,14.20
2022-08-09T19:50:10.485Z,8.87
2022-08-09T19:52:49.253Z,20.37
2022-08-09T19:55:19.519Z,13.37
2022-08-09T19:57:49.893Z,7.23
2022-08-09T20:00:19.041Z,7.37
2022-08-09T20:04:16.744Z,7.70
2022-08-09T20:05:46.825Z,11.63
2022-08-09T20:08:25.112Z,9.47
2022-08-09T20:11:04.876Z,9.27
2022-08-09T20:13:37.213Z,5.23
2022-08-09T20:16:38.240Z,7.70
2022-08-09T20:19:42.881Z,5.53
2022-08-09T20:21:55.230Z,6.80
2022-08-09T20:24:29.598Z,7.17
2022-08-09T20:27:05.579Z,5.77
2022-08-09T20:29:39.887Z,8.77
2022-08-09T20:32:29.868Z,6.73
2022-08-09T20:34:59.291Z,8.43
2022-08-09T20:38:18.556Z,9.30
2022-08-09T20:40:26.375Z,11.20
2022-08-09T20:43:00.231Z,6.93
2022-08-09T20:46:00.532Z,6.03
2022-08-09T20:48:32.582Z,6.57
2022-08-09T20:51:03.201Z,5.67
2022-08-09T20:53:38.749Z,12.20
2022-08-09T20:56:21.203Z,9.53
2022-08-09T20:58:57.963Z,20.67
2022-08-09T21:01:34.867Z,6.93
2022-08-09T21:05:53.956Z,9.23
2022-08-09T21:07:12.993Z,9.43
2022-08-09T21:09:45.662Z,11.03
2022-08-09T21:15:14.125Z,18.50
2022-08-09T21:18:11.601Z,12.53
2022-08-09T21:20:35.569Z,16.60
2022-08-09T21:23:04.623Z,11.47
2022-08-09T21:25:55.318Z,8.47
2022-08-09T21:28:35.075Z,8.87
2022-08-09T21:31:16.829Z,8.50
2022-08-09T21:33:51.531Z,8.60
2022-08-09T21:36:23.186Z,9.23
2022-08-09T21:38:57.481Z,8.87
2022-08-09T21:42:04.117Z,9.80
2022-08-09T21:44:34.507Z,13.03
2022-08-09T21:47:05.884Z,12.73
2022-08-09T21:49:40.300Z,10.90
2022-08-09T21:52:17.180Z,6.07
2022-08-09T21:54:50.641Z,10.23
2022-08-09T21:57:36.862Z,10.70
2022-08-09T22:00:12.691Z,9.13
2022-08-09T22:02:44.799Z,6.67
2022-08-09T22:05:35.866Z,6.37
2022-08-09T22:08:13.715Z,7.13
2022-08-09T22:11:01.139Z,7.73
2022-08-09T22:13:35.690Z,10.83
2022-08-09T22:16:07.912Z,9.93
2022-08-09T22:18:38.572Z,8.37
2022-08-09T22:21:23.989Z,10.17
2022-08-09T22:24:01.617Z,8.13
2022-08-09T22:26:35.323Z,10.60
2022-08-09T22:29:09.398Z,10.33
2022-08-09T22:31:50.344Z,7.67
2022-08-09T22:34:26.926Z,5.77
2022-08-09T22:36:58.543Z,10.97
2022-08-09T22:39:55.928Z,9.27
2022-08-09T22:42:21.896Z,7.80
2022-08-09T22:45:00.405Z,7.90
2022-08-09T22:48:10.230Z,9.27
2022-08-09T22:50:31.519Z,8.00
2022-08-09T22:53:03.553Z,7.80
2022-08-09T22:56:06.427Z,6.03
2022-08-09T22:58:33.104Z,7.47
2022-08-09T23:01:03.677Z,7.83
2022-08-09T23:04:03.514Z,9.83
2022-08-09T23:06:34.713Z,11.27
2022-08-09T23:09:07.063Z,7.60
2022-08-09T23:11:36.199Z,10.80
2022-08-09T23:14:10.273Z,9.73
2022-08-09T23:16:47.343Z,9.97
2022-08-09T23:19:16.179Z,8.07
2022-08-09T23:21:44.767Z,10.17
2022-08-09T23:24:14.950Z,10.87
2022-08-09T23:26:43.483Z,9.60
2022-08-09T23:29:14.053Z,13.90
2022-08-09T23:31:43.398Z,9.60
2022-08-09T23:34:12.292Z,10.97
2022-08-09T23:36:42.803Z,9.60
2022-08-09T23:39:11.524Z,11.70
2022-08-09T23:41:41.421Z,10.93
2022-08-09T23:44:10.027Z,10.53
2022-08-09T23:46:38.804Z,9.13
2022-08-09T23:49:09.027Z,11.83
2022-08-09T23:51:38.435Z,12.03
2022-08-09T23:54:07.658Z,10.47
2022-08-09T23:56:53.646Z,10.30
2022-08-09T23:59:46.575Z,9.93
